Time;durP1;ratioP1;P1;durP2;ratioP2;P2;SDS_P1;SDS_P2;PMS_P1;PMS_P2;Temp;Humidity;BMP_temperature;BMP_pressure;BME280_temperature;BME280_humidity;BME280_pressure;Samples;Min_cycle;Max_cycle;Signal;HPM_P1;HPM_P2
2023/06/04 00:03:00;;;;;;;10.90;4.20;;;;;;;6.39;58.67;101279.06;220967;1236;61398;-73
2023/06/04 00:07:53;;;;;;;7.60;4.00;;;;;;;6.34;58.64;101277.47;221075;1235;61236;-73
2023/06/04 00:12:44;;;;;;;8.00;3.40;;;;;;;6.32;58.79;101270.29;221092;1237;68471;-74
2023/06/04 00:17:36;;;;;;;5.90;4.10;;;;;;;6.29;59.15;101270.67;221143;1237;61307;-73
2023/06/04 00:22:27;;;;;;;5.50;3.70;;;;;;;6.23;59.03;101275.23;221034;1236;61234;-73
2023/06/04 00:27:19;;;;;;;4.60;3.30;;;;;;;6.12;58.89;101271.70;221218;1235;61200;-73
2023/06/04 00:32:10;;;;;;;7.50;3.60;;;;;;;5.98;59.03;101272.23;221127;1235;61262;-73
2023/06/04 00:37:02;;;;;;;6.70;3.40;;;;;;;5.92;59.07;101269.58;221243;1239;61335;-73
2023/06/04 00:41:54;;;;;;;7.50;3.20;;;;;;;5.94;59.35;101267.76;221147;1239;74566;-73
2023/06/04 00:46:47;;;;;;;6.60;3.50;;;;;;;5.88;59.31;101270.95;221107;1235;61315;-73
2023/06/04 00:51:39;;;;;;;6.40;3.40;;;;;;;5.89;59.48;101266.50;221191;1237;61367;-73
2023/06/04 00:56:30;;;;;;;5.90;3.80;;;;;;;5.87;59.22;101268.48;221148;1239;61858;-73
2023/06/04 01:01:27;;;;;;;5.70;3.40;;;;;;;5.84;59.70;101261.48;221248;1239;61352;-73
2023/06/04 01:06:48;;;;;;;7.70;4.00;;;;;;;5.84;59.40;101265.40;221171;1239;66157;-73
2023/06/04 01:11:40;;;;;;;6.80;3.80;;;;;;;5.70;59.40;101267.73;223100;1236;60112;-71
2023/06/04 01:17:02;;;;;;;5.30;3.40;;;;;;;5.61;59.62;101261.98;221047;1236;61315;-71
2023/06/04 01:21:59;;;;;;;6.10;3.90;;;;;;;5.56;59.80;101261.73;221083;1235;73305;-73
2023/06/04 01:26:52;;;;;;;;;;;;;;;5.46;60.02;101258.36;221102;1239;61210;-73
2023/06/04 01:31:43;;;;;;;7.90;3.20;;;;;;;5.44;60.24;101261.02;221064;1235;61377;-73
2023/06/04 01:36:35;;;;;;;6.60;3.30;;;;;;;5.36;60.19;101261.34;221008;1235;61191;-73
2023/06/04 01:41:27;;;;;;;4.60;3.00;;;;;;;5.33;60.40;101261.41;221042;1235;61266;-73
2023/06/04 01:46:18;;;;;;;5.40;3.70;;;;;;;5.26;60.38;101262.97;221071;1235;61242;-73
2023/06/04 01:51:10;;;;;;;7.40;3.80;;;;;;;5.13;60.56;101258.06;220994;1235;61285;-73
2023/06/04 01:56:01;;;;;;;5.30;3.60;;;;;;;5.04;60.77;101257.23;221011;1235;61313;-73
2023/06/04 02:00:55;;;;;;;6.80;3.70;;;;;;;5.07;61.00;101257.73;220938;1235;74259;-73
2023/06/04 02:05:47;;;;;;;7.40;3.20;;;;;;;5.06;60.98;101255.81;221056;1235;71300;-73
2023/06/04 02:10:38;;;;;;;8.20;3.60;;;;;;;5.01;60.95;101249.52;220982;1235;61233;-73
2023/06/04 02:15:31;;;;;;;3.80;2.90;;;;;;;5.00;61.43;101245.00;220986;1239;61351;-73
2023/06/04 02:20:23;;;;;;;6.10;3.30;;;;;;;5.06;61.35;101246.20;221002;1235;61365;-73
2023/06/04 02:25:15;;;;;;;5.50;2.90;;;;;;;5.07;61.42;101244.65;220972;1235;61283;-73
2023/06/04 02:30:07;;;;;;;5.00;2.90;;;;;;;5.10;61.61;101248.45;221129;1238;61751;-73
2023/06/04 02:34:59;;;;;;;5.60;3.20;;;;;;;5.11;61.29;101247.09;221223;1235;66954;-73
2023/06/04 02:39:50;;;;;;;4.90;3.10;;;;;;;5.08;61.36;101247.11;221119;1235;61342;-73
2023/06/04 02:44:42;;;;;;;5.60;3.40;;;;;;;5.08;61.53;101249.69;220961;1236;61293;-73
2023/06/04 02:49:33;;;;;;;4.30;2.80;;;;;;;5.05;61.61;101247.86;221060;1235;61215;-73
2023/06/04 02:54:25;;;;;;;6.00;3.40;;;;;;;5.07;61.64;101246.23;220899;1239;61885;-73
2023/06/04 02:59:16;;;;;;;5.10;2.90;;;;;;;5.06;61.76;101245.46;221058;1235;61290;-73
2023/06/04 03:04:09;;;;;;;5.30;3.00;;;;;;;5.11;61.87;101250.52;221004;1235;74344;-73
2023/06/04 03:09:01;;;;;;;5.00;3.50;;;;;;;5.17;62.04;101254.95;221056;1235;71480;-73
2023/06/04 03:13:53;;;;;;;5.40;3.90;;;;;;;5.27;61.91;101254.23;221074;1237;61256;-73
2023/06/04 03:18:45;;;;;;;5.40;3.40;;;;;;;5.43;61.93;101257.71;221038;1235;61256;-73
2023/06/04 03:23:36;;;;;;;10.40;4.10;;;;;;;5.64;61.96;101256.24;221138;1235;61266;-73
2023/06/04 03:28:28;;;;;;;4.80;3.20;;;;;;;6.33;61.49;101249.71;221090;1235;65402;-73
2023/06/04 03:33:20;;;;;;;7.30;4.10;;;;;;;6.77;60.88;101243.95;220912;1235;61690;-73
2023/06/04 03:38:12;;;;;;;4.60;2.90;;;;;;;7.08;60.36;101238.63;221177;1237;61696;-73
2023/06/04 03:43:04;;;;;;;3.60;3.10;;;;;;;7.21;60.19;101245.02;220874;1235;61252;-73
2023/06/04 03:47:56;;;;;;;3.50;2.80;;;;;;;7.28;60.30;101249.23;221009;1236;74548;-73
2023/06/04 03:52:50;;;;;;;5.20;3.00;;;;;;;7.13;60.28;101258.99;221053;1236;61232;-73
2023/06/04 03:57:42;;;;;;;7.40;3.50;;;;;;;6.97;60.61;101256.61;221081;1237;61375;-73
2023/06/04 04:02:35;;;;;;;4.30;3.10;;;;;;;6.88;61.20;101255.95;221096;1235;61226;-73
2023/06/04 04:07:27;;;;;;;4.40;3.10;;;;;;;6.85;61.75;101252.03;221105;1235;61335;-73
2023/06/04 04:12:19;;;;;;;5.10;3.60;;;;;;;6.86;62.18;101250.84;221027;1235;61282;-73
2023/06/04 04:17:11;;;;;;;4.50;3.30;;;;;;;6.90;62.31;101245.13;221138;1235;61231;-73
2023/06/04 04:22:03;;;;;;;4.10;3.10;;;;;;;6.96;62.59;101250.73;221085;1235;61453;-73
2023/06/04 04:26:55;;;;;;;5.00;3.10;;;;;;;7.05;62.74;101252.66;221018;1239;61225;-73
2023/06/04 04:31:47;;;;;;;6.10;2.90;;;;;;;7.18;62.73;101248.88;221166;1235;61311;-73
2023/06/04 04:36:40;;;;;;;6.10;2.90;;;;;;;7.36;62.91;101248.33;221055;1235;70881;-73
2023/06/04 04:41:32;;;;;;;5.00;3.20;;;;;;;7.54;63.08;101250.23;220949;1235;61339;-72
2023/06/04 04:46:25;;;;;;;3.70;2.90;;;;;;;7.70;63.08;101245.14;220958;1235;61419;-73
2023/06/04 04:51:17;;;;;;;5.60;2.80;;;;;;;7.88;63.08;101245.79;221103;1235;61234;-73
2023/06/04 04:56:10;;;;;;;4.60;2.70;;;;;;;8.02;63.09;101243.02;221007;1235;61393;-73
2023/06/04 05:01:04;;;;;;;5.20;2.60;;;;;;;8.19;62.94;101243.98;221174;1235;73107;-73
2023/06/04 05:05:57;;;;;;;4.30;2.20;;;;;;;8.42;62.31;101244.77;221153;1235;61852;-74
2023/06/04 05:10:51;;;;;;;2.80;2.60;;;;;;;8.63;62.22;101239.77;221128;1235;61709;-73
2023/06/04 05:15:43;;;;;;;3.40;2.30;;;;;;;8.84;61.88;101243.23;221271;1235;61345;-73
2023/06/04 05:20:37;;;;;;;3.50;2.50;;;;;;;9.03;61.53;101247.81;221196;1235;61320;-73
2023/06/04 05:25:29;;;;;;;3.60;2.60;;;;;;;9.22;61.64;101244.94;221140;1235;69983;-73
2023/06/04 05:30:21;;;;;;;3.10;2.20;;;;;;;9.40;61.51;101245.31;221045;1239;61835;-73
2023/06/04 05:35:13;;;;;;;5.00;2.10;;;;;;;9.70;61.12;101242.39;221074;1235;61237;-73
2023/06/04 05:40:07;;;;;;;4.20;2.00;;;;;;;10.01;60.75;101239.29;220953;1237;61397;-73
2023/06/04 05:44:59;;;;;;;5.50;2.00;;;;;;;10.52;59.72;101225.94;220980;1237;67889;-73
2023/06/04 05:49:51;;;;;;;5.70;1.60;;;;;;;10.91;58.89;101222.55;221216;1237;61186;-73
2023/06/04 05:54:43;;;;;;;3.40;1.70;;;;;;;11.23;58.28;101221.90;221179;1239;61999;-73
2023/06/04 05:59:34;;;;;;;2.20;1.50;;;;;;;11.48;57.56;101226.42;221144;1235;61331;-73
2023/06/04 06:04:27;;;;;;;3.80;1.70;;;;;;;11.93;56.25;101224.59;220976;1237;61110;-73
2023/06/04 06:09:20;;;;;;;1.70;1.10;;;;;;;12.15;55.59;101223.63;221154;1235;61290;-73
2023/06/04 06:14:12;;;;;;;1.70;1.50;;;;;;;12.30;54.89;101231.88;221229;1235;61969;-73
2023/06/04 06:19:04;;;;;;;1.90;1.30;;;;;;;12.48;54.33;101233.41;221316;1235;61317;-73
2023/06/04 06:23:56;;;;;;;0.90;0.90;;;;;;;12.78;53.41;101230.27;221187;1235;61258;-73
2023/06/04 06:28:48;;;;;;;2.30;1.00;;;;;;;13.21;52.47;101227.45;220952;1239;61368;-73
2023/06/04 06:33:40;;;;;;;1.50;1.10;;;;;;;13.91;51.45;101222.27;221172;1236;61218;-73
2023/06/04 06:38:32;;;;;;;0.90;0.80;;;;;;;14.17;50.70;101227.45;221260;1235;61281;-73
2023/06/04 06:43:23;;;;;;;1.40;1.10;;;;;;;14.33;49.50;101227.42;221165;1235;61240;-73
2023/06/04 06:48:15;;;;;;;0.70;0.70;;;;;;;14.63;48.62;101228.77;221277;1239;61659;-74
2023/06/04 06:53:06;;;;;;;0.90;0.90;;;;;;;14.90;48.34;101232.65;221005;1239;61341;-73
2023/06/04 06:57:58;;;;;;;1.10;0.90;;;;;;;15.37;47.75;101232.58;221234;1235;74568;-73
2023/06/04 07:02:50;;;;;;;1.30;0.90;;;;;;;15.84;46.63;101232.33;221217;1236;61131;-73
2023/06/04 07:07:42;;;;;;;2.10;0.90;;;;;;;15.67;46.26;101236.94;221271;1235;61203;-73
2023/06/04 07:12:33;;;;;;;1.30;0.80;;;;;;;15.66;45.26;101236.75;221226;1237;73379;-73
2023/06/04 07:17:25;;;;;;;1.10;0.80;;;;;;;15.76;44.38;101238.91;221155;1238;61244;-73
2023/06/04 07:22:16;;;;;;;1.40;1.10;;;;;;;16.04;43.73;101234.65;221209;1239;61336;-73
2023/06/04 07:27:12;;;;;;;3.00;0.90;;;;;;;16.74;43.27;101232.10;221333;1235;61339;-73
2023/06/04 07:32:05;;;;;;;1.90;0.90;;;;;;;18.72;40.60;101222.20;221183;1235;68119;-74
2023/06/04 07:36:56;;;;;;;1.70;0.80;;;;;;;22.50;35.99;101217.60;221230;1237;61241;-74
2023/06/04 07:41:48;;;;;;;0.90;0.80;;;;;;;25.95;32.31;101214.59;221046;1235;61268;-74
2023/06/04 07:46:40;;;;;;;4.00;1.20;;;;;;;29.07;29.96;101215.08;220828;1236;61254;-74
2023/06/04 07:51:31;;;;;;;1.20;1.00;;;;;;;31.42;27.49;101214.11;221130;1235;61348;-74
2023/06/04 07:56:23;;;;;;;5.00;1.30;;;;;;;30.58;26.84;101213.18;221123;1236;61466;-74
2023/06/04 08:01:15;;;;;;;3.80;1.30;;;;;;;29.65;26.72;101214.59;221022;1239;74238;-74
2023/06/04 08:06:07;;;;;;;2.80;1.00;;;;;;;28.07;27.14;101219.27;221046;1239;61255;-73
2023/06/04 08:10:58;;;;;;;3.10;1.20;;;;;;;26.78;28.00;101216.58;221078;1239;61364;-73
2023/06/04 08:15:50;;;;;;;1.00;1.00;;;;;;;28.60;25.67;101210.83;221065;1239;71690;-74
2023/06/04 08:20:41;;;;;;;1.40;1.00;;;;;;;31.14;23.56;101205.20;221110;1237;61264;-74
2023/06/04 08:25:33;;;;;;;2.80;1.30;;;;;;;33.26;22.82;101200.58;221253;1236;61476;-74
2023/06/04 08:30:27;;;;;;;2.90;1.00;;;;;;;33.63;21.07;101198.37;221046;1239;61281;-74
2023/06/04 08:35:18;;;;;;;1.40;1.10;;;;;;;31.26;22.33;101200.14;221032;1239;65363;-74
2023/06/04 08:40:10;;;;;;;2.00;1.10;;;;;;;31.28;22.09;101193.81;221058;1239;61368;-74
2023/06/04 08:45:02;;;;;;;4.40;1.40;;;;;;;32.23;21.45;101191.34;221036;1235;61239;-74
2023/06/04 08:49:59;;;;;;;1.30;1.20;;;;;;;33.32;20.79;101192.14;221064;1237;61312;-74
2023/06/04 08:54:51;;;;;;;2.20;1.00;;;;;;;33.91;20.35;101186.63;220933;1239;75557;-74
2023/06/04 08:59:42;;;;;;;1.90;1.00;;;;;;;31.39;21.79;101191.48;221060;1239;61329;-74
2023/06/04 09:04:34;;;;;;;1.60;1.00;;;;;;;30.08;22.00;101184.29;221150;1239;61417;-74
2023/06/04 09:09:29;;;;;;;1.20;0.80;;;;;;;28.40;22.65;101185.48;221026;1239;72393;-73
2023/06/04 09:14:21;;;;;;;2.80;1.00;;;;;;;26.03;23.93;101195.56;221010;1237;61368;-73
2023/06/04 09:19:14;;;;;;;3.30;0.90;;;;;;;24.66;25.20;101192.27;221033;1239;61338;-73
2023/06/04 09:24:05;;;;;;;2.10;1.00;;;;;;;24.17;25.70;101184.17;220980;1238;61467;-73
2023/06/04 09:28:59;;;;;;;1.30;1.00;;;;;;;26.21;24.32;101178.10;221020;1237;61268;-74
2023/06/04 09:33:51;;;;;;;0.80;0.80;;;;;;;27.71;23.56;101175.55;221004;1239;61257;-74
2023/06/04 09:38:43;;;;;;;0.90;0.90;;;;;;;29.84;22.60;101173.21;221140;1239;61787;-74
2023/06/04 09:43:37;;;;;;;2.30;0.90;;;;;;;32.03;21.23;101173.30;220877;1239;71702;-74
2023/06/04 09:48:29;;;;;;;2.50;0.90;;;;;;;33.15;20.04;101169.98;221168;1235;61763;-74
2023/06/04 09:53:22;;;;;;;1.90;1.10;;;;;;;34.08;19.36;101162.71;221121;1239;61368;-74
2023/06/04 09:58:15;;;;;;;1.00;0.80;;;;;;;34.74;19.10;101160.04;221132;1236;61231;-74
2023/06/04 10:03:11;;;;;;;8.90;1.40;;;;;;;35.30;18.95;101160.63;221087;1239;61245;-74
2023/06/04 10:08:06;;;;;;;1.30;0.80;;;;;;;35.66;17.82;101156.09;220953;1239;61240;-74
2023/06/04 10:13:18;;;;;;;1.00;0.90;;;;;;;35.71;18.05;101146.23;221081;1235;74664;-74
2023/06/04 10:18:11;;;;;;;1.50;1.00;;;;;;;35.70;17.50;101144.30;221113;1239;72620;-74
2023/06/04 10:23:04;;;;;;;1.00;1.00;;;;;;;35.69;16.97;101141.52;221161;1238;61217;-74
2023/06/04 10:27:55;;;;;;;0.90;0.90;;;;;;;35.41;16.68;101136.16;221083;1239;61284;-74
2023/06/04 10:32:47;;;;;;;1.60;1.20;;;;;;;35.00;16.63;101135.67;221085;1239;61250;-74
2023/06/04 10:37:39;;;;;;;1.10;0.90;;;;;;;34.68;16.82;101131.34;221068;1235;147920;-74
2023/06/04 10:42:39;;;;;;;2.40;1.30;;;;;;;34.30;16.93;101128.16;221112;1239;61266;-73
2023/06/04 10:47:33;;;;;;;3.30;1.10;;;;;;;33.96;16.98;101124.00;220958;1239;75702;-74
2023/06/04 10:52:25;;;;;;;2.90;1.30;;;;;;;33.60;17.77;101124.90;220975;1236;73665;-74
2023/06/04 10:57:18;;;;;;;3.30;1.10;;;;;;;33.48;17.98;101123.82;221142;1237;61221;-74
2023/06/04 11:02:10;;;;;;;2.20;1.00;;;;;;;32.33;18.69;101116.70;221122;1239;61699;-73
2023/06/04 11:07:08;;;;;;;1.50;0.80;;;;;;;30.56;19.74;101113.89;221167;1239;61344;-73
2023/06/04 11:12:00;;;;;;;2.40;1.50;;;;;;;29.30;20.46;101115.44;221199;1235;66840;-73
2023/06/04 11:16:52;;;;;;;3.60;1.00;;;;;;;28.28;21.45;101115.27;221100;1239;61365;-73
2023/06/04 11:21:44;;;;;;;2.20;1.00;;;;;;;27.43;21.74;101114.02;221132;1239;61265;-73
2023/06/04 11:26:37;;;;;;;1.10;1.00;;;;;;;26.56;22.23;101118.80;221135;1239;61248;-74
2023/06/04 11:31:45;;;;;;;1.40;0.80;;;;;;;25.87;22.83;101115.09;221084;1239;75297;-73
2023/06/04 11:36:37;;;;;;;1.10;1.00;;;;;;;25.28;23.50;101120.56;221139;1239;71110;-74
2023/06/04 11:41:36;;;;;;;1.40;0.70;;;;;;;24.58;24.91;101115.64;221117;1237;61248;-73
2023/06/04 11:46:27;;;;;;;0.80;0.80;;;;;;;23.90;25.01;101113.65;221010;1239;65671;-73
2023/06/04 11:51:22;;;;;;;2.50;1.00;;;;;;;23.52;25.55;101111.62;220938;1235;61273;-73
2023/06/04 11:56:15;;;;;;;1.80;0.80;;;;;;;24.16;24.90;101115.11;221120;1236;75585;-73
2023/06/04 12:01:11;;;;;;;1.30;0.90;;;;;;;25.08;25.88;101110.48;221052;1239;61346;-73
2023/06/04 12:06:11;;;;;;;1.60;1.50;;;;;;;25.79;24.71;101102.61;221137;1238;61352;-73
2023/06/04 12:11:03;;;;;;;1.40;1.20;;;;;;;26.20;24.18;101102.91;221160;1236;65546;-73
2023/06/04 12:15:55;;;;;;;1.70;1.60;;;;;;;25.87;23.69;101108.14;221072;1239;61276;-73
2023/06/04 12:20:46;;;;;;;2.10;1.20;;;;;;;24.56;23.88;101118.73;221071;1236;61237;-73
2023/06/04 12:25:40;;;;;;;1.40;1.00;;;;;;;24.07;25.25;101112.05;221135;1237;61222;-74
2023/06/04 12:30:39;;;;;;;0.70;0.70;;;;;;;24.44;26.56;101109.08;221173;1240;61345;-73
2023/06/04 12:35:31;;;;;;;1.00;0.90;;;;;;;24.01;25.97;101107.30;221040;1235;72426;-73
2023/06/04 12:40:22;;;;;;;2.30;1.00;;;;;;;24.48;24.97;101105.73;221056;1239;61273;-73
2023/06/04 12:45:14;;;;;;;1.70;1.60;;;;;;;25.10;25.49;101098.90;221094;1239;61265;-73
2023/06/04 12:50:06;;;;;;;1.60;1.20;;;;;;;25.68;24.67;101094.90;220988;1239;61351;-73
2023/06/04 12:54:57;;;;;;;3.70;3.40;;;;;;;26.19;24.36;101094.61;220786;1238;61248;-73
2023/06/04 12:59:49;;;;;;;3.20;2.80;;;;;;;26.27;23.66;101094.80;220983;1235;61270;-74
2023/06/04 13:04:44;;;;;;;1.20;1.00;;;;;;;26.37;23.50;101093.48;220808;1240;66822;-73
2023/06/04 13:09:35;;;;;;;3.60;2.90;;;;;;;26.41;23.21;101096.71;220958;1236;61325;-73
2023/06/04 13:14:27;;;;;;;1.20;1.00;;;;;;;26.61;24.61;101089.80;220728;1235;61105;-74
2023/06/04 13:19:20;;;;;;;3.70;1.20;;;;;;;26.80;24.36;101084.02;221006;1240;61256;-73
2023/06/04 13:24:12;;;;;;;5.30;1.30;;;;;;;26.74;23.78;101082.52;220960;1235;75588;-74
2023/06/04 13:29:03;;;;;;;3.40;1.10;;;;;;;26.69;24.01;101083.63;220818;1240;61181;-73
2023/06/04 13:33:55;;;;;;;2.10;1.00;;;;;;;26.82;24.52;101088.01;221035;1239;61321;-73
2023/06/04 13:38:47;;;;;;;1.40;1.10;;;;;;;27.04;24.70;101081.34;220936;1239;73340;-74
2023/06/04 13:43:38;;;;;;;3.40;1.00;;;;;;;27.14;23.83;101082.79;220953;1235;61251;-73
2023/06/04 13:48:30;;;;;;;8.90;1.60;;;;;;;27.19;23.50;101076.52;221043;1239;61260;-73
2023/06/04 13:53:22;;;;;;;1.40;0.80;;;;;;;27.25;23.27;101073.25;221050;1239;61224;-73
2023/06/04 13:58:14;;;;;;;1.70;1.00;;;;;;;26.95;23.09;101068.39;220958;1239;61229;-74
2023/06/04 14:03:06;;;;;;;1.80;0.80;;;;;;;26.88;23.03;101068.17;221006;1239;61350;-73
2023/06/04 14:07:58;;;;;;;0.70;0.70;;;;;;;26.91;23.64;101066.24;221033;1239;61302;-74
2023/06/04 14:12:50;;;;;;;2.30;1.10;;;;;;;26.84;23.46;101063.21;220966;1235;61333;-73
2023/06/04 14:17:41;;;;;;;0.90;0.90;;;;;;;26.94;23.40;101058.29;220792;1235;61322;-73
2023/06/04 14:22:35;;;;;;;2.20;0.90;;;;;;;26.96;22.88;101057.14;220991;1240;61407;-73
2023/06/04 14:27:26;;;;;;;1.50;1.00;;;;;;;26.91;23.01;101057.38;220778;1235;61357;-73
2023/06/04 14:32:18;;;;;;;2.40;0.90;;;;;;;26.87;23.46;101055.95;220953;1239;61248;-73
2023/06/04 14:37:10;;;;;;;0.90;0.90;;;;;;;26.88;23.12;101053.27;220951;1239;61318;-73
2023/06/04 14:42:01;;;;;;;3.00;0.90;;;;;;;26.93;23.31;101048.53;221049;1239;61865;-73
2023/06/04 14:46:53;;;;;;;1.00;0.80;;;;;;;26.79;22.84;101058.27;220928;1235;61270;-72
2023/06/04 14:51:45;;;;;;;2.10;1.00;;;;;;;26.51;22.68;101063.01;221022;1238;65874;-73
2023/06/04 14:56:37;;;;;;;3.00;1.10;;;;;;;26.39;23.55;101051.83;221012;1235;61269;-73
2023/06/04 15:01:28;;;;;;;3.00;0.90;;;;;;;26.38;23.33;101050.65;220876;1235;61374;-74
2023/06/04 15:06:20;;;;;;;1.90;0.80;;;;;;;26.30;22.85;101049.74;220999;1239;61119;-73
2023/06/04 15:11:12;;;;;;;2.60;1.20;;;;;;;26.17;22.93;101047.27;220919;1239;74537;-73
2023/06/04 15:16:04;;;;;;;0.90;0.90;;;;;;;25.91;22.87;101046.92;220867;1235;61475;-74
2023/06/04 15:20:55;;;;;;;1.10;1.00;;;;;;;25.76;22.97;101049.13;220925;1235;61355;-73
2023/06/04 15:25:47;;;;;;;1.50;1.20;;;;;;;25.43;22.83;101044.98;220905;1235;73836;-73
2023/06/04 15:30:38;;;;;;;1.20;0.80;;;;;;;25.39;23.02;101046.00;220833;1237;61332;-73
2023/06/04 15:35:30;;;;;;;1.70;0.80;;;;;;;25.32;23.03;101043.48;220891;1235;61268;-73
2023/06/04 15:40:21;;;;;;;2.40;1.00;;;;;;;25.27;23.01;101042.06;220888;1239;61316;-73
2023/06/04 15:45:13;;;;;;;3.70;1.10;;;;;;;24.98;23.02;101037.26;221020;1235;61265;-73
2023/06/04 15:50:05;;;;;;;3.90;1.00;;;;;;;24.72;23.28;101039.15;220925;1235;61291;-74
2023/06/04 15:54:57;;;;;;;3.10;0.90;;;;;;;24.70;24.21;101038.86;220913;1239;66993;-73
2023/06/04 15:59:49;;;;;;;1.40;1.00;;;;;;;24.62;23.60;101038.62;220766;1235;61231;-74
2023/06/04 16:04:40;;;;;;;2.10;1.20;;;;;;;24.52;23.81;101031.54;220920;1235;61288;-74
2023/06/04 16:09:32;;;;;;;1.60;1.20;;;;;;;24.40;23.74;101029.48;220878;1239;61316;-73
2023/06/04 16:14:24;;;;;;;0.90;0.90;;;;;;;24.33;24.06;101024.75;220864;1235;61302;-74
2023/06/04 16:19:15;;;;;;;6.30;1.20;;;;;;;24.33;24.26;101026.51;220927;1235;61249;-74
2023/06/04 16:24:08;;;;;;;0.90;0.90;;;;;;;24.33;24.26;101028.98;220910;1235;75356;-74
2023/06/04 16:28:59;;;;;;;2.00;0.90;;;;;;;24.25;24.08;101029.83;220774;1239;61160;-74
2023/06/04 16:33:51;;;;;;;2.60;1.00;;;;;;;24.17;24.88;101031.13;220946;1235;61289;-74
2023/06/04 16:38:43;;;;;;;1.20;0.90;;;;;;;24.09;24.82;101028.78;220832;1239;74039;-74
2023/06/04 16:43:37;;;;;;;1.20;1.00;;;;;;;23.96;24.78;101029.90;220862;1235;61433;-74
2023/06/04 16:48:29;;;;;;;1.70;0.80;;;;;;;23.80;24.84;101029.90;220849;1235;66860;-74
2023/06/04 16:53:20;;;;;;;3.20;1.50;;;;;;;23.57;24.68;101031.85;220801;1240;61179;-74
2023/06/04 16:58:13;;;;;;;4.40;1.10;;;;;;;23.42;25.09;101031.98;220714;1235;61422;-74
2023/06/04 17:03:04;;;;;;;2.50;1.20;;;;;;;23.21;25.39;101037.77;220838;1235;61787;-73
2023/06/04 17:07:56;;;;;;;2.30;1.20;;;;;;;23.06;25.55;101035.36;220814;1239;61285;-74
2023/06/04 17:12:47;;;;;;;1.70;1.20;;;;;;;22.86;25.67;101037.19;220791;1235;61232;-74
2023/06/04 17:17:39;;;;;;;2.00;1.00;;;;;;;22.72;25.75;101040.61;220675;1235;74728;-74
2023/06/04 17:22:31;;;;;;;2.50;1.20;;;;;;;22.58;26.35;101040.61;220733;1236;61329;-74
2023/06/04 17:27:22;;;;;;;5.80;1.90;;;;;;;22.43;26.32;101042.25;220844;1235;61227;-74
2023/06/04 17:32:14;;;;;;;2.20;1.20;;;;;;;22.26;27.00;101041.84;220691;1239;72898;-74
2023/06/04 17:37:06;;;;;;;3.20;1.20;;;;;;;22.05;27.44;101045.00;220832;1239;61331;-74
2023/06/04 17:41:57;;;;;;;6.70;1.70;;;;;;;21.84;28.09;101042.52;220729;1235;61454;-74
2023/06/04 17:46:49;;;;;;;4.70;1.50;;;;;;;21.57;29.83;101048.46;220720;1239;61124;-74
2023/06/04 17:51:41;;;;;;;12.30;2.40;;;;;;;21.21;31.04;101045.02;220671;1239;61328;-74
2023/06/04 17:56:33;;;;;;;8.90;1.90;;;;;;;20.84;31.66;101048.44;220636;1239;61327;-74
2023/06/04 18:01:24;;;;;;;4.50;1.20;;;;;;;20.45;32.00;101053.02;220859;1235;61307;-74
2023/06/04 18:06:16;;;;;;;3.10;1.70;;;;;;;20.10;32.94;101059.81;220442;1235;61266;-74
2023/06/04 18:11:09;;;;;;;5.50;1.50;;;;;;;19.76;33.30;101058.77;220680;1235;61612;-74
2023/06/04 18:16:00;;;;;;;3.10;1.90;;;;;;;19.42;33.55;101060.13;220685;1235;61290;-74
2023/06/04 18:20:52;;;;;;;6.60;2.00;;;;;;;19.07;33.74;101065.70;220728;1235;61732;-74
2023/06/04 18:25:44;;;;;;;15.90;2.70;;;;;;;18.76;34.47;101070.09;220600;1239;71362;-73
2023/06/04 18:30:35;;;;;;;4.70;1.30;;;;;;;18.45;34.76;101076.20;220694;1239;61326;-74
2023/06/04 18:35:27;;;;;;;6.30;1.30;;;;;;;18.15;35.08;101081.73;220786;1237;61309;-74
2023/06/04 18:40:19;;;;;;;7.10;1.30;;;;;;;17.87;35.45;101081.06;220863;1235;61404;-73
2023/06/04 18:45:14;;;;;;;4.60;1.10;;;;;;;17.60;36.01;101084.04;220837;1235;61246;-74
2023/06/04 18:50:06;;;;;;;18.10;3.30;;;;;;;17.37;36.68;101090.64;220812;1239;61416;-74
2023/06/04 18:54:58;;;;;;;7.20;1.90;;;;;;;17.21;37.50;101096.86;220833;1237;61249;-74
2023/06/04 18:59:50;;;;;;;5.70;1.60;;;;;;;16.96;37.28;101104.65;220853;1236;61255;-74
2023/06/04 19:04:41;;;;;;;4.20;1.70;;;;;;;16.74;37.70;101109.23;220949;1235;61268;-74
2023/06/04 19:09:33;;;;;;;4.90;1.70;;;;;;;16.53;38.51;101112.77;220806;1239;73099;-74
2023/06/04 19:14:24;;;;;;;6.80;2.30;;;;;;;16.34;39.49;101118.38;220904;1239;61309;-74
2023/06/04 19:19:16;;;;;;;7.10;2.10;;;;;;;16.17;40.22;101120.66;220833;1235;61330;-74
2023/06/04 19:24:08;;;;;;;8.20;2.10;;;;;;;16.00;41.07;101123.61;220796;1235;61235;-74
2023/06/04 19:28:59;;;;;;;8.80;2.30;;;;;;;15.78;41.62;101125.31;220713;1239;61781;-74
2023/06/04 19:33:51;;;;;;;6.70;2.20;;;;;;;15.59;42.27;101128.05;220833;1239;61584;-74
2023/06/04 19:38:44;;;;;;;9.80;2.40;;;;;;;15.44;42.77;101129.04;220661;1236;65666;-73
2023/06/04 19:43:36;;;;;;;5.50;2.40;;;;;;;15.27;43.03;101126.72;220709;1235;61209;-74
2023/06/04 19:48:27;;;;;;;8.40;3.00;;;;;;;15.14;43.38;101132.23;220820;1235;69269;-74
2023/06/04 19:53:19;;;;;;;6.60;2.30;;;;;;;15.00;44.05;101139.84;220957;1235;61272;-75
2023/06/04 19:58:10;;;;;;;6.00;2.80;;;;;;;14.85;44.14;101140.82;220852;1239;73376;-74
2023/06/04 20:03:02;;;;;;;9.00;2.50;;;;;;;14.75;44.09;101144.42;220794;1239;61211;-74
2023/06/04 20:07:54;;;;;;;5.70;1.80;;;;;;;14.57;44.49;101146.88;220713;1239;61265;-74
2023/06/04 20:12:46;;;;;;;7.70;1.80;;;;;;;14.40;44.78;101151.61;220765;1235;72368;-73
2023/06/04 20:17:40;;;;;;;3.60;1.90;;;;;;;14.26;45.15;101156.73;220792;1237;61361;-74
2023/06/04 20:22:32;;;;;;;11.50;2.80;;;;;;;14.12;45.52;101156.09;220614;1235;61374;-74
2023/06/04 20:27:24;;;;;;;7.10;2.50;;;;;;;13.96;46.06;101154.53;220867;1235;61279;-73
2023/06/04 20:32:15;;;;;;;5.60;3.50;;;;;;;13.82;46.31;101155.27;220900;1239;61331;-73
2023/06/04 20:37:07;;;;;;;7.70;2.80;;;;;;;13.71;46.64;101158.63;220707;1235;61329;-74
2023/06/04 20:42:01;;;;;;;7.30;2.20;;;;;;;13.56;47.39;101160.20;220881;1235;74801;-73
2023/06/04 20:46:52;;;;;;;5.50;2.40;;;;;;;13.42;47.35;101169.27;220790;1235;61961;-74
2023/06/04 20:51:44;;;;;;;5.40;2.80;;;;;;;13.32;47.82;101164.45;220908;1237;61262;-74
2023/06/04 20:56:36;;;;;;;3.60;1.90;;;;;;;13.25;48.38;101167.62;220875;1235;72461;-74
2023/06/04 21:01:27;;;;;;;5.90;2.50;;;;;;;13.13;48.78;101174.25;220809;1237;61266;-74
2023/06/04 21:06:19;;;;;;;5.20;2.30;;;;;;;12.92;48.84;101175.86;220861;1235;61362;-74
2023/06/04 21:11:10;;;;;;;8.00;2.20;;;;;;;12.75;48.98;101178.39;220830;1236;61273;-74
2023/06/04 21:16:02;;;;;;;4.50;2.60;;;;;;;12.61;49.48;101179.73;220659;1235;61329;-74
2023/06/04 21:20:54;;;;;;;7.50;2.90;;;;;;;12.46;49.63;101174.80;220911;1235;61374;-73
2023/06/04 21:25:46;;;;;;;7.20;2.30;;;;;;;12.33;49.75;101173.90;220866;1239;65623;-74
2023/06/04 21:30:38;;;;;;;7.00;2.80;;;;;;;12.16;50.07;101174.98;220647;1235;61388;-73
2023/06/04 21:35:29;;;;;;;7.50;2.90;;;;;;;12.07;51.04;101180.72;220807;1239;61339;-73
2023/06/04 21:40:21;;;;;;;5.00;2.40;;;;;;;12.01;51.93;101186.02;220785;1239;61216;-73
2023/06/04 21:45:12;;;;;;;3.40;2.40;;;;;;;11.93;51.61;101192.63;220726;1239;61727;-74
2023/06/04 21:50:05;;;;;;;4.20;2.30;;;;;;;11.84;52.39;101193.65;220664;1235;61368;-73
2023/06/04 21:54:56;;;;;;;3.40;2.30;;;;;;;11.74;52.72;101193.98;220828;1235;75552;-73
2023/06/04 21:59:48;;;;;;;5.40;2.50;;;;;;;11.62;52.36;101194.08;220921;1235;61371;-73
2023/06/04 22:04:39;;;;;;;6.00;2.40;;;;;;;11.53;52.94;101198.23;220943;1235;61304;-73
2023/06/04 22:09:31;;;;;;;4.40;3.40;;;;;;;11.45;52.59;101203.45;220785;1235;72919;-73
2023/06/04 22:14:22;;;;;;;4.70;2.60;;;;;;;11.36;52.47;101206.39;220909;1235;61475;-73
2023/06/04 22:19:14;;;;;;;4.00;2.60;;;;;;;11.24;52.86;101205.60;221174;1235;61239;-73
2023/06/04 22:24:06;;;;;;;4.20;2.40;;;;;;;11.15;53.00;101204.88;220960;1235;61246;-73
2023/06/04 22:28:57;;;;;;;3.50;2.30;;;;;;;11.06;53.55;101204.69;220965;1235;61243;-73